Time;durP1;ratioP1;P1;durP2;ratioP2;P2;SDS_P1;SDS_P2;PMS_P1;PMS_P2;Temp;Humidity;BMP_temperature;BMP_pressure;BME280_temperature;BME280_humidity;BME280_pressure;Samples;Min_cycle;Max_cycle;Signal;HPM_P1;HPM_P2
2023/05/03 00:00:00;;;;;;;7.68;2.80;;;;;;;9.30;59.38;102786.84;5055655;28;20080;-62
2023/05/03 00:02:25;;;;;;;5.25;2.63;;;;;;;9.31;59.29;102800.09;5055695;28;20078;-62
2023/05/03 00:04:52;;;;;;;6.25;2.83;;;;;;;9.27;59.71;102795.50;5055608;28;20043;-63
2023/05/03 00:07:18;;;;;;;6.25;2.75;;;;;;;9.15;59.95;102798.44;5055007;28;20157;-62
2023/05/03 00:09:43;;;;;;;5.68;3.17;;;;;;;9.06;59.93;102797.13;5055797;28;20041;-62
2023/05/03 00:12:08;;;;;;;4.82;2.80;;;;;;;8.96;60.48;102788.75;5055526;28;20452;-62
2023/05/03 00:14:34;;;;;;;6.93;3.03;;;;;;;8.94;60.41;102798.31;5055420;28;20029;-62
2023/05/03 00:16:59;;;;;;;7.32;2.75;;;;;;;8.99;59.90;102802.09;5037465;28;20033;-62
2023/05/03 00:19:28;;;;;;;7.80;2.92;;;;;;;8.91;60.63;102792.91;5055345;28;20033;-62
2023/05/03 00:21:54;;;;;;;6.90;2.90;;;;;;;8.92;60.35;102786.81;5055398;28;20056;-62
2023/05/03 00:24:20;;;;;;;4.95;2.85;;;;;;;8.95;60.70;102797.50;5055584;28;20025;-62
2023/05/03 00:26:45;;;;;;;7.22;3.00;;;;;;;8.97;59.97;102798.47;5055254;28;20094;-62
2023/05/03 00:29:10;;;;;;;8.40;3.05;;;;;;;9.08;59.72;102796.38;5055450;28;20474;-62
2023/05/03 00:31:36;;;;;;;5.55;2.80;;;;;;;9.16;59.41;102796.72;5037128;28;20524;-62
2023/05/03 00:34:01;;;;;;;6.53;3.10;;;;;;;9.05;59.63;102797.94;5055113;28;20021;-62
2023/05/03 00:36:27;;;;;;;6.22;2.80;;;;;;;8.99;59.44;102802.09;5054927;28;20561;-62
2023/05/03 00:38:52;;;;;;;7.00;2.85;;;;;;;9.00;60.08;102801.28;5055333;28;20040;-62
2023/05/03 00:41:18;;;;;;;6.18;2.95;;;;;;;8.94;60.67;102794.78;5054947;28;20478;-62
2023/05/03 00:43:43;;;;;;;6.93;2.90;;;;;;;8.90;60.16;102796.34;5054980;28;20029;-62
2023/05/03 00:46:09;;;;;;;8.60;3.00;;;;;;;8.91;60.10;102803.47;5054932;28;20102;-62
2023/05/03 00:48:35;;;;;;;6.03;2.80;;;;;;;8.92;59.95;102804.34;5053623;28;20104;-63
2023/05/03 00:51:01;;;;;;;6.43;2.92;;;;;;;8.90;60.74;102801.63;5054702;28;20090;-62
2023/05/03 00:53:27;;;;;;;6.47;3.03;;;;;;;8.82;60.35;102797.72;5036953;28;20574;-62
2023/05/03 00:55:54;;;;;;;6.28;2.80;;;;;;;8.79;60.56;102802.84;5054778;28;20474;-62
2023/05/03 00:58:20;;;;;;;6.07;3.00;;;;;;;8.74;61.27;102800.00;5054589;28;20036;-62
2023/05/03 01:00:47;;;;;;;8.15;3.15;;;;;;;8.73;61.18;102803.44;5054917;28;20028;-62
2023/05/03 01:03:13;;;;;;;5.60;2.80;;;;;;;8.72;61.33;102793.72;5054508;28;20048;-62
2023/05/03 01:06:17;;;;;;;5.30;2.55;;;;;;;8.79;60.65;102797.59;5054593;28;20052;-63
2023/05/03 01:08:49;;;;;;;7.45;3.08;;;;;;;8.70;61.51;102791.88;5054649;28;20029;-62
2023/05/03 01:11:25;;;;;;;4.57;2.67;;;;;;;8.67;61.51;102789.97;5054206;28;20043;-63
2023/05/03 01:14:08;;;;;;;8.15;2.97;;;;;;;8.70;61.22;102786.59;5054407;28;20090;-62
2023/05/03 01:16:41;;;;;;;8.43;2.83;;;;;;;8.59;62.14;102796.59;5021158;28;20029;-62
2023/05/03 01:19:22;;;;;;;5.57;2.60;;;;;;;8.63;61.49;102798.53;5054083;28;20504;-62
2023/05/03 01:21:55;;;;;;;8.57;2.97;;;;;;;8.61;61.67;102797.59;5054153;28;20062;-62
2023/05/03 01:24:23;;;;;;;4.22;2.90;;;;;;;8.50;62.19;102790.84;5036123;28;20060;-63
2023/05/03 01:26:49;;;;;;;5.82;2.85;;;;;;;8.41;62.65;102793.03;5053897;28;20023;-62
2023/05/03 01:29:14;;;;;;;5.82;2.92;;;;;;;8.34;62.55;102804.94;5036003;28;20115;-62
2023/05/03 01:31:39;;;;;;;4.82;3.10;;;;;;;8.37;62.00;102797.22;5054020;28;20382;-62
2023/05/03 01:34:12;;;;;;;6.45;2.67;;;;;;;8.30;62.74;102805.59;5053886;28;20052;-62
2023/05/03 01:36:41;;;;;;;5.32;3.00;;;;;;;8.32;62.90;102801.34;5019391;28;20151;-62
2023/05/03 01:39:12;;;;;;;5.28;3.00;;;;;;;8.26;63.15;102799.28;5053731;28;20057;-62
2023/05/03 01:41:40;;;;;;;6.68;2.90;;;;;;;8.25;63.36;102800.09;5053823;28;20044;-62
2023/05/03 01:44:07;;;;;;;5.95;2.92;;;;;;;8.20;63.02;102812.13;5053722;28;20382;-63
2023/05/03 01:46:33;;;;;;;8.05;3.20;;;;;;;8.15;62.81;102800.47;5053782;28;20032;-63
2023/05/03 01:48:58;;;;;;;6.13;3.03;;;;;;;8.16;63.69;102801.38;5053762;28;20017;-62
2023/05/03 01:51:24;;;;;;;6.57;3.00;;;;;;;8.18;63.07;102812.88;5053667;28;20386;-62
2023/05/03 01:53:49;;;;;;;6.53;3.00;;;;;;;8.21;62.62;102806.03;5019192;28;20139;-63
2023/05/03 01:56:14;;;;;;;4.75;2.95;;;;;;;8.20;63.70;102803.31;5053351;28;20033;-62
2023/05/03 01:58:40;;;;;;;5.03;2.88;;;;;;;8.23;63.13;102806.13;5053337;28;20036;-62
2023/05/03 02:01:06;;;;;;;4.15;2.70;;;;;;;8.21;62.97;102808.66;5053234;28;20025;-62
2023/05/03 02:03:32;;;;;;;5.47;2.78;;;;;;;8.17;62.83;102800.53;5053453;28;20032;-62
2023/05/03 02:05:57;;;;;;;10.48;3.17;;;;;;;8.13;63.06;102803.81;5053267;28;20017;-62
2023/05/03 02:08:23;;;;;;;7.15;3.15;;;;;;;8.09;63.21;102801.84;5053328;28;20045;-62
2023/05/03 02:10:48;;;;;;;6.53;3.00;;;;;;;8.08;63.60;102805.31;5053219;28;20064;-62
2023/05/03 02:13:15;;;;;;;7.55;3.00;;;;;;;8.11;63.30;102800.22;5053242;28;20115;-62
2023/05/03 02:15:40;;;;;;;7.10;3.00;;;;;;;8.04;62.71;102805.16;5053136;28;20496;-62
2023/05/03 02:18:07;;;;;;;5.85;2.80;;;;;;;8.08;63.21;102803.59;5053099;28;20025;-63
2023/05/03 02:20:36;;;;;;;8.27;3.15;;;;;;;8.02;63.38;102798.00;5053196;28;20103;-62
2023/05/03 02:23:02;;;;;;;5.57;2.90;;;;;;;8.00;63.54;102803.19;5035949;28;20056;-62
2023/05/03 02:25:28;;;;;;;5.60;2.80;;;;;;;7.97;63.38;102797.78;5053197;28;20544;-62
2023/05/03 02:27:53;;;;;;;7.00;3.00;;;;;;;8.06;62.99;102797.34;5035561;28;20025;-62
2023/05/03 02:30:19;;;;;;;8.63;3.00;;;;;;;8.10;63.45;102790.53;5053024;28;20037;-62
2023/05/03 02:32:44;;;;;;;6.25;2.83;;;;;;;8.18;63.24;102795.38;5052798;28;20025;-62
2023/05/03 02:35:10;;;;;;;4.82;2.80;;;;;;;8.22;61.75;102791.13;5052792;28;20021;-62
2023/05/03 02:37:35;;;;;;;6.93;2.83;;;;;;;8.26;61.70;102783.50;5052773;28;20033;-62
2023/05/03 02:40:00;;;;;;;7.15;2.97;;;;;;;8.28;61.99;102781.81;5052871;28;20021;-63
2023/05/03 02:42:26;;;;;;;7.38;2.90;;;;;;;8.31;61.61;102772.25;5052976;28;20116;-63
2023/05/03 02:44:51;;;;;;;8.38;3.20;;;;;;;8.32;61.52;102771.47;5052812;28;20036;-63
2023/05/03 02:47:17;;;;;;;7.03;3.10;;;;;;;8.27;61.98;102771.22;5052650;28;20063;-62
2023/05/03 02:49:42;;;;;;;6.70;3.10;;;;;;;8.22;62.18;102770.06;5052713;28;20029;-62
2023/05/03 02:52:08;;;;;;;6.35;3.10;;;;;;;8.13;62.13;102759.06;5052687;28;20412;-63
2023/05/03 02:54:33;;;;;;;6.05;3.10;;;;;;;8.11;62.16;102759.00;5052932;28;20025;-63
2023/05/03 02:56:58;;;;;;;5.95;2.88;;;;;;;8.02;62.13;102748.00;5034440;28;20033;-62
2023/05/03 02:59:24;;;;;;;5.78;3.20;;;;;;;7.98;62.81;102751.28;5052555;28;20086;-62
2023/05/03 03:01:49;;;;;;;6.80;3.30;;;;;;;7.83;63.20;102740.84;5052351;28;20033;-62
2023/05/03 03:04:15;;;;;;;7.40;3.25;;;;;;;7.68;63.78;102733.06;5052803;28;20033;-62
2023/05/03 03:06:40;;;;;;;7.43;3.40;;;;;;;7.62;64.34;102740.63;5052482;28;20045;-63
2023/05/03 03:09:06;;;;;;;6.00;2.92;;;;;;;7.53;64.85;102737.50;5052738;28;20051;-63
2023/05/03 03:11:31;;;;;;;6.07;3.10;;;;;;;7.46;64.39;102749.44;5053484;28;20025;-63
2023/05/03 03:13:57;;;;;;;7.63;3.42;;;;;;;7.35;64.91;102755.84;5056518;28;20056;-63
2023/05/03 03:16:22;;;;;;;7.28;3.40;;;;;;;7.25;65.42;102756.16;5056528;28;20033;-63
2023/05/03 03:18:48;;;;;;;7.70;3.00;;;;;;;7.19;66.28;102772.47;5056804;28;20037;-62
2023/05/03 03:21:13;;;;;;;7.50;3.45;;;;;;;7.14;65.57;102755.56;5056446;28;20538;-62
2023/05/03 03:23:38;;;;;;;6.50;3.42;;;;;;;7.09;66.26;102754.41;5056314;28;20032;-62
2023/05/03 03:26:05;;;;;;;8.90;3.42;;;;;;;6.99;65.81;102760.88;5038797;28;20033;-62
2023/05/03 03:28:30;;;;;;;9.82;3.10;;;;;;;6.97;66.14;102773.00;5056380;28;20027;-62
2023/05/03 03:30:55;;;;;;;7.90;3.22;;;;;;;6.97;66.91;102774.75;5056143;28;20389;-62
2023/05/03 03:33:21;;;;;;;6.75;3.40;;;;;;;6.97;66.64;102782.63;5056257;28;20474;-62
2023/05/03 03:35:47;;;;;;;9.43;3.60;;;;;;;6.94;67.48;102780.75;5056360;28;20021;-63
2023/05/03 03:38:12;;;;;;;7.03;3.30;;;;;;;6.89;66.77;102773.41;5056025;28;20017;-62
2023/05/03 03:40:38;;;;;;;8.77;3.50;;;;;;;6.94;66.42;102774.59;5056210;28;20021;-62
2023/05/03 03:43:03;;;;;;;7.95;3.28;;;;;;;6.93;66.37;102770.13;5038160;28;20467;-62
2023/05/03 03:45:29;;;;;;;8.10;3.50;;;;;;;7.01;66.12;102768.84;5056048;28;20036;-63
2023/05/03 03:47:56;;;;;;;8.43;3.83;;;;;;;7.14;66.08;102766.06;5055940;28;20097;-62
2023/05/03 03:50:23;;;;;;;5.43;3.30;;;;;;;7.14;65.36;102752.03;5056311;28;20054;-62
2023/05/03 03:52:48;;;;;;;10.00;3.70;;;;;;;7.20;66.01;102757.66;5055771;28;20025;-63
2023/05/03 03:55:14;;;;;;;5.95;3.65;;;;;;;7.11;66.23;102758.03;5037925;28;20060;-63
2023/05/03 03:57:40;;;;;;;10.63;4.03;;;;;;;7.06;66.35;102758.56;5037850;28;20040;-63
2023/05/03 04:00:10;;;;;;;7.35;3.60;;;;;;;7.00;65.68;102751.28;5055979;28;20025;-62
2023/05/03 04:02:36;;;;;;;7.30;3.67;;;;;;;7.00;66.53;102764.41;5055864;28;20037;-62
2023/05/03 04:05:01;;;;;;;7.10;3.45;;;;;;;6.94;66.71;102774.59;5055702;28;20029;-62
2023/05/03 04:07:27;;;;;;;9.07;3.55;;;;;;;6.91;66.45;102779.66;5037437;28;20057;-63
2023/05/03 04:09:52;;;;;;;6.90;3.50;;;;;;;6.92;66.51;102779.75;5037639;28;20037;-63
2023/05/03 04:12:18;;;;;;;5.10;3.55;;;;;;;6.94;66.84;102777.22;5055402;28;20457;-63
2023/05/03 04:14:43;;;;;;;7.55;3.50;;;;;;;6.93;67.56;102783.28;5055543;28;20029;-63
2023/05/03 04:17:08;;;;;;;6.90;3.45;;;;;;;6.92;66.66;102777.13;5055428;28;20029;-62
2023/05/03 04:19:34;;;;;;;7.28;3.90;;;;;;;6.94;66.43;102780.75;5037686;28;20029;-63
2023/05/03 04:21:59;;;;;;;9.48;3.90;;;;;;;7.00;66.22;102782.81;5055158;28;20433;-62
2023/05/03 04:24:27;;;;;;;10.05;3.97;;;;;;;6.97;66.55;102782.63;5055122;28;20029;-62
2023/05/03 04:26:52;;;;;;;7.53;3.85;;;;;;;6.93;66.99;102781.53;5055219;28;20029;-62
2023/05/03 04:29:18;;;;;;;8.77;3.78;;;;;;;6.90;67.29;102777.88;5055445;28;20025;-63
2023/05/03 04:31:44;;;;;;;8.45;3.85;;;;;;;6.85;67.25;102782.84;5055011;28;20390;-63
2023/05/03 04:34:13;;;;;;;7.63;4.07;;;;;;;6.84;67.08;102786.28;5055003;28;20021;-62
2023/05/03 04:36:40;;;;;;;11.55;3.90;;;;;;;6.80;67.79;102781.66;5054849;28;20029;-63
2023/05/03 04:39:06;;;;;;;11.13;3.83;;;;;;;6.82;67.30;102784.41;5037678;28;20033;-62
2023/05/03 04:41:32;;;;;;;5.82;3.60;;;;;;;6.84;67.60;102791.53;5054997;28;20040;-62
2023/05/03 04:43:57;;;;;;;9.77;3.90;;;;;;;6.81;68.15;102800.97;5055097;28;20474;-62
2023/05/03 04:46:23;;;;;;;6.78;3.60;;;;;;;6.68;67.92;102795.03;5054968;28;20115;-62
2023/05/03 04:48:48;;;;;;;8.98;3.63;;;;;;;6.77;68.66;102800.81;5054837;28;20025;-62
2023/05/03 04:51:13;;;;;;;6.78;3.80;;;;;;;6.83;68.04;102821.25;5037065;28;20025;-62
2023/05/03 04:53:39;;;;;;;6.90;3.75;;;;;;;6.85;68.21;102827.53;5054877;28;20072;-62
2023/05/03 04:56:06;;;;;;;9.75;3.78;;;;;;;6.89;68.02;102829.50;5054678;28;20470;-62
2023/05/03 04:58:32;;;;;;;7.32;3.75;;;;;;;6.96;68.00;102833.38;5054573;28;20421;-62
2023/05/03 05:00:57;;;;;;;6.90;3.53;;;;;;;7.03;67.67;102835.56;5054718;28;20037;-62
2023/05/03 05:03:22;;;;;;;8.55;4.07;;;;;;;7.11;67.70;102835.97;5054596;28;20125;-62
2023/05/03 05:05:48;;;;;;;9.00;4.13;;;;;;;7.23;67.95;102842.81;5054561;28;20036;-62
2023/05/03 05:08:13;;;;;;;7.20;3.88;;;;;;;7.36;67.11;102844.41;5054281;28;20115;-62
2023/05/03 05:10:41;;;;;;;7.68;3.67;;;;;;;7.45;67.41;102851.91;5054407;28;20036;-62
2023/05/03 05:13:07;;;;;;;8.10;3.92;;;;;;;7.53;66.45;102846.25;5054532;28;20401;-62
2023/05/03 05:15:32;;;;;;;8.38;3.80;;;;;;;7.68;65.89;102848.84;5054330;28;20474;-62
2023/05/03 05:17:58;;;;;;;7.90;3.60;;;;;;;7.71;67.15;102851.66;5036555;28;20029;-63
2023/05/03 05:20:24;;;;;;;8.95;3.83;;;;;;;7.73;66.07;102846.47;5054310;28;20048;-63
2023/05/03 05:22:49;;;;;;;7.45;3.53;;;;;;;7.87;67.07;102845.47;5054193;28;20060;-63
2023/05/03 05:25:15;;;;;;;6.03;3.80;;;;;;;7.99;66.14;102842.59;5036702;28;20033;-62
2023/05/03 05:27:40;;;;;;;8.60;3.95;;;;;;;8.15;65.51;102841.69;5036184;28;20025;-63
2023/05/03 05:30:06;;;;;;;10.20;3.72;;;;;;;8.23;64.93;102843.00;5054027;28;20102;-62
2023/05/03 05:32:32;;;;;;;8.25;3.83;;;;;;;8.34;64.79;102843.53;5054098;28;20021;-62
2023/05/03 05:34:57;;;;;;;8.23;3.67;;;;;;;8.53;64.89;102849.88;5053330;28;20052;-62
2023/05/03 05:37:24;;;;;;;9.85;4.18;;;;;;;8.60;63.88;102853.72;5053806;28;20056;-63
2023/05/03 05:39:49;;;;;;;7.60;4.03;;;;;;;8.66;64.89;102851.41;5054106;28;20020;-63
2023/05/03 05:42:15;;;;;;;10.32;3.90;;;;;;;8.78;65.04;102845.88;5053905;28;20040;-62
2023/05/03 05:44:41;;;;;;;11.25;4.05;;;;;;;8.90;64.13;102843.81;5053658;28;20108;-63
2023/05/03 05:47:06;;;;;;;6.82;3.80;;;;;;;8.95;63.19;102846.69;5053748;28;20089;-62
2023/05/03 05:49:31;;;;;;;14.88;4.18;;;;;;;9.04;63.99;102847.16;5035750;28;20099;-62
2023/05/03 05:51:57;;;;;;;10.90;4.65;;;;;;;9.18;62.93;102843.44;5053501;28;20028;-62
2023/05/03 05:54:23;;;;;;;10.32;3.75;;;;;;;9.32;63.37;102844.09;5035306;28;20371;-63
2023/05/03 05:56:49;;;;;;;11.30;4.53;;;;;;;9.40;62.92;102845.38;5053323;28;20021;-63
2023/05/03 05:59:15;;;;;;;8.00;4.35;;;;;;;9.46;62.91;102844.75;5053236;28;20470;-62
2023/05/03 06:01:43;;;;;;;7.93;4.10;;;;;;;9.65;63.58;102850.06;5035365;28;20029;-62
2023/05/03 06:04:09;;;;;;;7.50;3.80;;;;;;;9.81;61.97;102854.34;5053695;28;20029;-62
2023/05/03 06:06:35;;;;;;;15.77;4.28;;;;;;;9.90;61.33;102853.84;5052996;28;20033;-63
2023/05/03 06:09:00;;;;;;;7.50;4.20;;;;;;;9.98;61.52;102853.38;5053694;28;20104;-62
2023/05/03 06:11:26;;;;;;;8.13;4.10;;;;;;;10.13;61.20;102847.84;5053338;28;20465;-63
2023/05/03 06:13:52;;;;;;;6.25;3.90;;;;;;;10.31;61.59;102857.47;5053220;28;20075;-63
2023/05/03 06:16:17;;;;;;;8.05;4.00;;;;;;;10.41;60.66;102851.78;5053206;28;20397;-62
2023/05/03 06:18:42;;;;;;;9.18;4.00;;;;;;;10.44;59.55;102846.59;5053300;28;20033;-62
2023/05/03 06:21:09;;;;;;;5.65;4.00;;;;;;;10.49;59.21;102843.34;5053100;28;20033;-62
2023/05/03 06:23:36;;;;;;;8.52;4.05;;;;;;;10.69;59.56;102844.16;5035370;28;20386;-63
2023/05/03 06:26:02;;;;;;;8.55;3.92;;;;;;;10.86;57.98;102838.69;5052945;28;20025;-62
2023/05/03 06:28:29;;;;;;;10.55;4.53;;;;;;;10.97;58.54;102837.41;5052888;28;20029;-63
2023/05/03 06:30:55;;;;;;;6.93;4.00;;;;;;;11.07;57.53;102843.97;5052941;28;20029;-62
2023/05/03 06:33:20;;;;;;;9.38;4.20;;;;;;;11.22;57.35;102844.56;5052999;28;20036;-61
2023/05/03 06:35:48;;;;;;;11.70;5.82;;;;;;;11.31;56.62;102847.59;5052853;28;20451;-62
2023/05/03 06:38:14;;;;;;;10.73;4.95;;;;;;;11.43;57.46;102844.50;5052812;28;20107;-62
2023/05/03 06:40:42;;;;;;;10.45;4.65;;;;;;;11.53;57.75;102834.34;5053146;28;20148;-62
2023/05/03 06:43:07;;;;;;;8.68;4.38;;;;;;;11.63;56.99;102832.06;5052709;28;20033;-62
2023/05/03 06:45:33;;;;;;;9.68;4.20;;;;;;;11.70;56.04;102827.06;5052761;28;20031;-62
2023/05/03 06:47:58;;;;;;;8.48;4.10;;;;;;;11.84;54.64;102832.91;5052949;28;20116;-64
2023/05/03 06:50:24;;;;;;;7.10;4.18;;;;;;;11.94;54.54;102828.84;5035218;28;20420;-62
2023/05/03 06:52:50;;;;;;;8.43;4.10;;;;;;;12.05;54.15;102822.19;5052863;28;20036;-62
2023/05/03 06:55:16;;;;;;;12.05;4.10;;;;;;;12.11;53.24;102814.47;5035181;28;20025;-62
2023/05/03 06:57:42;;;;;;;8.98;3.88;;;;;;;12.25;54.18;102818.53;5034895;28;20029;-62
2023/05/03 07:00:09;;;;;;;8.73;4.00;;;;;;;12.38;53.39;102818.97;5052625;28;20095;-62
2023/05/03 07:02:34;;;;;;;8.55;4.60;;;;;;;12.30;53.72;102817.78;5052750;28;20021;-63
2023/05/03 07:05:00;;;;;;;7.38;4.30;;;;;;;12.27;52.57;102819.47;5052476;28;20025;-61
2023/05/03 07:07:25;;;;;;;10.90;4.68;;;;;;;12.31;53.14;102825.78;5050741;28;20045;-63
2023/05/03 07:09:50;;;;;;;8.45;4.65;;;;;;;12.32;53.56;102816.06;5017992;28;20127;-62
2023/05/03 07:12:16;;;;;;;9.02;4.43;;;;;;;12.41;52.12;102825.25;5052370;28;20487;-63
2023/05/03 07:14:41;;;;;;;8.85;4.20;;;;;;;12.50;52.45;102824.66;5052551;28;20055;-61
2023/05/03 07:17:08;;;;;;;6.82;3.85;;;;;;;12.65;52.33;102825.19;5052525;28;20394;-65
2023/05/03 07:19:33;;;;;;;9.65;4.47;;;;;;;12.78;51.93;102831.81;5052480;28;20024;-63
2023/05/03 07:21:59;;;;;;;8.23;4.32;;;;;;;13.00;51.61;102829.00;5052762;28;20033;-63
2023/05/03 07:24:27;;;;;;;10.07;4.43;;;;;;;13.12;51.36;102827.63;5052758;28;20487;-63
2023/05/03 07:26:53;;;;;;;11.07;4.30;;;;;;;13.30;50.96;102830.00;5034471;28;20037;-64
2023/05/03 07:29:18;;;;;;;9.65;4.20;;;;;;;13.44;50.16;102824.22;5052591;28;20025;-62
2023/05/03 07:31:43;;;;;;;7.88;4.43;;;;;;;13.63;50.13;102831.03;5052521;28;20407;-62
2023/05/03 07:34:09;;;;;;;8.85;4.00;;;;;;;13.71;48.92;102818.88;5050623;28;20438;-63
2023/05/03 07:36:35;;;;;;;12.32;4.40;;;;;;;13.84;48.67;102819.25;5051785;28;20025;-61
2023/05/03 07:39:00;;;;;;;7.55;4.30;;;;;;;13.93;47.89;102811.53;5052421;28;20398;-62
2023/05/03 07:41:26;;;;;;;8.10;4.18;;;;;;;13.78;47.76;102812.84;5052174;28;20025;-61
2023/05/03 07:43:51;;;;;;;8.93;4.40;;;;;;;13.99;49.33;102806.38;5052147;28;20029;-62
2023/05/03 07:46:17;;;;;;;6.90;3.95;;;;;;;14.27;47.59;102803.63;5052083;28;20052;-61
2023/05/03 07:48:42;;;;;;;6.45;3.70;;;;;;;14.50;46.17;102806.00;5052176;28;20489;-63
2023/05/03 07:51:07;;;;;;;10.10;3.90;;;;;;;14.62;46.10;102800.13;5051986;28;20029;-62
2023/05/03 07:53:34;;;;;;;7.93;3.70;;;;;;;14.87;46.66;102797.19;5051985;28;20033;-63
2023/05/03 07:56:00;;;;;;;7.35;3.75;;;;;;;14.98;44.33;102797.44;5052312;28;20390;-62
2023/05/03 07:58:25;;;;;;;6.82;3.83;;;;;;;15.03;44.27;102787.78;5054276;28;20464;-62
2023/05/03 08:00:51;;;;;;;7.20;4.03;;;;;;;15.14;44.86;102788.97;5055415;28;20409;-61
2023/05/03 08:03:17;;;;;;;9.65;3.72;;;;;;;15.27;44.00;102772.38;5033675;28;20505;-62
2023/05/03 08:05:42;;;;;;;6.95;3.40;;;;;;;15.26;42.93;102770.59;5054400;28;20398;-61
2023/05/03 08:08:08;;;;;;;6.50;3.78;;;;;;;15.32;43.31;102772.47;5053870;28;20045;-61
2023/05/03 08:10:36;;;;;;;5.93;3.70;;;;;;;15.47;43.40;102777.25;5055798;28;20455;-62
2023/05/03 08:13:04;;;;;;;7.85;3.80;;;;;;;15.51;43.00;102771.13;5037982;28;20029;-62
2023/05/03 08:15:30;;;;;;;5.78;3.20;;;;;;;15.80;42.93;102765.53;5055583;28;20425;-62
2023/05/03 08:17:55;;;;;;;7.38;3.65;;;;;;;15.83;41.41;102753.16;5055394;28;20028;-62
2023/05/03 08:20:21;;;;;;;7.43;3.72;;;;;;;15.82;40.63;102761.13;5037492;28;20087;-63
2023/05/03 08:22:46;;;;;;;7.93;2.97;;;;;;;15.70;40.85;102754.69;5055213;28;20060;-62
2023/05/03 08:25:11;;;;;;;7.63;3.17;;;;;;;15.75;41.04;102765.44;5055494;28;20037;-61
2023/05/03 08:27:37;;;;;;;5.55;3.22;;;;;;;15.53;40.73;102767.63;5055226;28;20025;-62
2023/05/03 08:30:03;;;;;;;8.48;3.20;;;;;;;15.50;40.45;102763.97;5055234;28;20482;-62
2023/05/03 08:32:29;;;;;;;10.00;3.50;;;;;;;15.38;40.57;102756.66;5055099;28;20029;-62
2023/05/03 08:34:55;;;;;;;7.35;3.20;;;;;;;15.41;41.03;102762.03;5055042;28;20025;-62
2023/05/03 08:37:21;;;;;;;9.55;3.50;;;;;;;15.49;41.92;102759.53;5055137;28;20128;-62
2023/05/03 08:39:47;;;;;;;8.18;3.47;;;;;;;15.55;41.06;102750.78;5037185;28;20108;-62
2023/05/03 08:42:13;;;;;;;8.43;3.63;;;;;;;15.70;40.15;102754.69;5036988;28;20028;-62
2023/05/03 08:44:48;;;;;;;6.18;3.30;;;;;;;16.08;40.52;102748.31;5054951;28;20025;-62
2023/05/03 08:47:15;;;;;;;6.68;3.58;;;;;;;16.15;39.41;102750.22;5037775;28;20032;-62
2023/05/03 08:49:42;;;;;;;7.40;3.60;;;;;;;16.34;39.61;102752.31;5054696;28;20493;-62
2023/05/03 08:52:12;;;;;;;8.73;3.80;;;;;;;16.53;38.91;102735.78;5054950;28;20032;-62
2023/05/03 08:54:37;;;;;;;5.85;3.13;;;;;;;16.69;38.19;102747.56;5054819;28;20116;-62
2023/05/03 08:57:03;;;;;;;6.57;3.40;;;;;;;16.69;37.86;102746.69;5054883;28;20441;-62
2023/05/03 08:59:28;;;;;;;6.70;3.50;;;;;;;16.80;38.66;102752.22;5054576;28;20434;-62
2023/05/03 09:01:54;;;;;;;6.63;3.60;;;;;;;16.79;37.30;102764.69;5054579;28;20542;-62
2023/05/03 09:04:20;;;;;;;6.82;3.42;;;;;;;16.71;37.81;102764.53;5054545;28;20029;-62
2023/05/03 09:06:45;;;;;;;9.68;4.35;;;;;;;16.82;38.74;102763.81;5054512;28;20029;-62
2023/05/03 09:09:10;;;;;;;6.63;3.42;;;;;;;16.87;37.32;102757.66;5053297;28;20045;-62
2023/05/03 09:11:37;;;;;;;6.63;3.70;;;;;;;16.90;38.50;102759.50;5036864;28;20165;-62
2023/05/03 09:14:11;;;;;;;8.05;3.67;;;;;;;16.91;37.95;102751.50;5036410;28;20033;-62
2023/05/03 09:16:39;;;;;;;5.25;3.38;;;;;;;17.33;37.50;102736.06;5054200;28;20493;-62
2023/05/03 09:19:08;;;;;;;7.13;3.70;;;;;;;17.74;37.00;102745.53;5020019;28;20032;-62
2023/05/03 09:21:34;;;;;;;8.55;3.40;;;;;;;17.92;35.76;102746.63;5054411;28;20037;-62
2023/05/03 09:24:02;;;;;;;6.45;3.47;;;;;;;18.22;34.86;102757.63;5054250;28;20032;-62
2023/05/03 09:26:33;;;;;;;7.22;3.55;;;;;;;18.35;34.94;102752.38;5054175;28;20032;-61
2023/05/03 09:29:04;;;;;;;6.85;3.70;;;;;;;18.32;34.63;102750.56;5053486;28;20052;-62
2023/05/03 09:31:32;;;;;;;8.93;3.65;;;;;;;18.25;33.19;102752.31;5054088;28;20052;-62
2023/05/03 09:33:59;;;;;;;8.93;3.60;;;;;;;18.14;34.37;102755.75;5054186;28;20021;-61
2023/05/03 09:36:26;;;;;;;9.25;3.42;;;;;;;18.11;35.07;102747.69;5054100;28;20064;-62
2023/05/03 09:38:51;;;;;;;6.35;3.38;;;;;;;18.16;35.00;102748.66;5053785;28;20082;-61
2023/05/03 09:41:30;;;;;;;7.53;3.53;;;;;;;18.43;34.94;102738.19;5053748;28;20021;-62
2023/05/03 09:44:01;;;;;;;6.18;3.50;;;;;;;18.78;34.62;102742.94;5019438;28;20437;-62
2023/05/03 09:46:28;;;;;;;8.00;3.85;;;;;;;18.75;33.95;102738.47;5053779;28;20136;-62
2023/05/03 09:48:56;;;;;;;8.77;3.58;;;;;;;18.91;33.72;102728.75;5036199;28;20037;-62
2023/05/03 09:51:22;;;;;;;7.47;3.53;;;;;;;19.25;34.48;102739.66;5053718;28;20036;-62
2023/05/03 09:53:49;;;;;;;7.78;3.70;;;;;;;19.23;33.61;102742.34;5053556;28;20108;-62
2023/05/03 09:56:15;;;;;;;9.57;3.70;;;;;;;19.49;33.26;102738.91;5053616;28;20292;-61
2023/05/03 09:58:41;;;;;;;8.15;3.90;;;;;;;19.31;32.44;102728.97;5035456;28;20052;-61
2023/05/03 10:01:10;;;;;;;7.38;3.70;;;;;;;19.17;32.61;102730.69;5053354;28;20470;-61
2023/05/03 10:03:40;;;;;;;11.90;3.95;;;;;;;19.00;32.93;102725.22;5053535;28;20091;-62
2023/05/03 10:06:17;;;;;;;7.13;3.63;;;;;;;19.27;33.50;102732.50;5053372;28;20029;-61
2023/05/03 10:08:51;;;;;;;13.00;3.70;;;;;;;19.55;32.10;102729.97;5052845;28;20052;-61
2023/05/03 10:11:17;;;;;;;11.10;4.03;;;;;;;19.72;31.44;102728.28;5053075;28;20086;-62
2023/05/03 10:13:44;;;;;;;5.70;3.70;;;;;;;19.84;32.60;102725.63;5053048;28;20036;-62
2023/05/03 10:16:13;;;;;;;7.57;4.00;;;;;;;20.08;31.81;102719.38;5053200;28;20104;-62
2023/05/03 10:19:05;;;;;;;7.47;3.60;;;;;;;20.31;31.01;102715.84;5053231;28;20029;-61
2023/05/03 10:22:02;;;;;;;6.75;3.55;;;;;;;20.57;31.79;102719.44;5031132;28;20128;-61
2023/05/03 10:24:27;;;;;;;5.55;3.63;;;;;;;20.83;30.09;102719.41;5053005;28;20048;-62
2023/05/03 10:26:55;;;;;;;7.80;3.83;;;;;;;20.71;30.65;102732.84;5035015;28;20534;-62
2023/05/03 10:29:53;;;;;;;6.65;3.47;;;;;;;20.78;30.97;102725.69;5052873;28;20025;-62
2023/05/03 10:32:28;;;;;;;4.97;3.15;;;;;;;21.02;30.56;102717.56;5052302;28;20033;-62
2023/05/03 10:35:08;;;;;;;6.47;3.40;;;;;;;21.06;30.23;102721.13;5034970;28;20363;-61
2023/05/03 10:37:35;;;;;;;9.63;3.97;;;;;;;21.32;28.97;102726.47;5033153;28;20024;-63
2023/05/03 10:40:10;;;;;;;8.65;3.95;;;;;;;21.51;29.19;102722.81;5052053;28;20245;-63
2023/05/03 10:42:37;;;;;;;6.55;3.70;;;;;;;21.52;29.50;102719.22;5034660;28;20050;-63
2023/05/03 10:45:03;;;;;;;7.90;3.60;;;;;;;21.42;29.98;102709.41;5018458;28;20493;-63
2023/05/03 10:47:29;;;;;;;9.95;3.90;;;;;;;21.42;29.24;102717.47;5018370;28;20071;-63
2023/05/03 10:50:13;;;;;;;7.18;3.60;;;;;;;21.49;31.62;102722.78;5052838;28;20094;-63
2023/05/03 10:52:38;;;;;;;7.65;3.80;;;;;;;21.79;28.98;102718.16;5034856;28;20086;-63
2023/05/03 10:55:17;;;;;;;12.60;4.30;;;;;;;22.03;29.38;102710.84;5052762;28;20530;-64
2023/05/03 10:57:45;;;;;;;13.45;4.18;;;;;;;22.07;28.77;102718.88;5052802;28;20029;-63
2023/05/03 11:00:27;;;;;;;8.32;3.45;;;;;;;22.15;29.66;102722.44;5052638;28;20490;-63
2023/05/03 11:03:37;;;;;;;7.78;3.83;;;;;;;22.32;29.72;102711.53;5034885;28;20025;-63
2023/05/03 11:06:04;;;;;;;7.30;3.70;;;;;;;22.23;29.12;102704.44;5052585;28;20051;-63
2023/05/03 11:08:36;;;;;;;5.90;3.65;;;;;;;22.35;27.89;102708.81;5052211;28;20087;-63
2023/05/03 11:11:02;;;;;;;10.25;3.92;;;;;;;22.43;28.77;102704.25;5052933;28;20127;-63
2023/05/03 11:13:28;;;;;;;5.68;3.63;;;;;;;22.31;27.91;102704.38;5052743;28;20061;-63
2023/05/03 11:15:56;;;;;;;7.47;4.07;;;;;;;21.98;28.22;102708.19;5052600;28;20447;-63
2023/05/03 11:18:29;;;;;;;8.38;4.03;;;;;;;21.35;28.96;102699.56;5052738;28;20064;-63
2023/05/03 11:20:55;;;;;;;5.53;3.53;;;;;;;21.34;29.29;102697.78;5052917;28;20041;-63
2023/05/03 11:23:27;;;;;;;8.38;3.70;;;;;;;21.30;29.08;102696.88;5034875;28;20032;-63
2023/05/03 11:25:52;;;;;;;8.07;3.90;;;;;;;21.45;28.79;102687.84;5052391;28;20371;-63
2023/05/03 11:28:18;;;;;;;6.50;3.88;;;;;;;21.43;29.19;102681.59;5052485;28;20048;-63